sensor_id;sensor_type;location;lat;lon;timestamp;temperature;humidity
79494;SHT31;68951;53.130;18.104;2024-02-23T00:01:00;9.46;76.30
79494;SHT31;68951;53.130;18.104;2024-02-23T00:03:47;9.48;76.30
79494;SHT31;68951;53.130;18.104;2024-02-23T00:06:13;9.48;76.28
79494;SHT31;68951;53.130;18.104;2024-02-23T00:08:41;9.49;76.20
79494;SHT31;68951;53.130;18.104;2024-02-23T00:11:08;9.49;76.20
79494;SHT31;68951;53.130;18.104;2024-02-23T00:13:35;9.50;76.20
79494;SHT31;68951;53.130;18.104;2024-02-23T00:16:02;9.51;76.20
79494;SHT31;68951;53.130;18.104;2024-02-23T00:18:29;9.53;76.15
79494;SHT31;68951;53.130;18.104;2024-02-23T00:20:55;9.53;76.14
79494;SHT31;68951;53.130;18.104;2024-02-23T00:23:22;9.52;76.10
79494;SHT31;68951;53.130;18.104;2024-02-23T00:25:49;9.51;76.10
79494;SHT31;68951;53.130;18.104;2024-02-23T00:28:16;9.50;76.10
79494;SHT31;68951;53.130;18.104;2024-02-23T00:30:43;9.51;76.10
79494;SHT31;68951;53.130;18.104;2024-02-23T00:33:10;9.51;76.10
79494;SHT31;68951;53.130;18.104;2024-02-23T00:35:37;9.51;76.13
79494;SHT31;68951;53.130;18.104;2024-02-23T00:38:03;9.54;76.16
79494;SHT31;68951;53.130;18.104;2024-02-23T00:40:30;9.54;76.13
79494;SHT31;68951;53.130;18.104;2024-02-23T00:42:57;9.56;76.10
79494;SHT31;68951;53.130;18.104;2024-02-23T00:45:26;9.56;76.10
79494;SHT31;68951;53.130;18.104;2024-02-23T00:47:53;9.57;76.10
79494;SHT31;68951;53.130;18.104;2024-02-23T00:50:20;9.58;76.10
79494;SHT31;68951;53.130;18.104;2024-02-23T00:52:47;9.59;76.08
79494;SHT31;68951;53.130;18.104;2024-02-23T00:55:13;9.61;76.02
79494;SHT31;68951;53.130;18.104;2024-02-23T00:57:40;9.60;76.00
79494;SHT31;68951;53.130;18.104;2024-02-23T01:00:07;9.60;76.00
79494;SHT31;68951;53.130;18.104;2024-02-23T01:02:35;9.60;75.97
79494;SHT31;68951;53.130;18.104;2024-02-23T01:05:02;9.59;75.90
79494;SHT31;68951;53.130;18.104;2024-02-23T01:07:29;9.61;75.91
79494;SHT31;68951;53.130;18.104;2024-02-23T01:09:56;9.64;75.90
79494;SHT31;68951;53.130;18.104;2024-02-23T01:12:25;9.66;75.90
79494;SHT31;68951;53.130;18.104;2024-02-23T01:14:51;9.68;75.90
79494;SHT31;68951;53.130;18.104;2024-02-23T01:17:19;9.70;75.90
79494;SHT31;68951;53.130;18.104;2024-02-23T01:19:46;9.71;75.85
79494;SHT31;68951;53.130;18.104;2024-02-23T01:22:13;9.71;75.80
79494;SHT31;68951;53.130;18.104;2024-02-23T01:24:41;9.71;75.80
79494;SHT31;68951;53.130;18.104;2024-02-23T01:27:07;9.71;75.78
79494;SHT31;68951;53.130;18.104;2024-02-23T01:29:34;9.71;75.79
79494;SHT31;68951;53.130;18.104;2024-02-23T01:32:01;9.72;75.79
79494;SHT31;68951;53.130;18.104;2024-02-23T01:34:28;9.72;75.80
79494;SHT31;68951;53.130;18.104;2024-02-23T01:36:55;9.73;75.80
79494;SHT31;68951;53.130;18.104;2024-02-23T01:39:22;9.72;75.79
79494;SHT31;68951;53.130;18.104;2024-02-23T01:41:48;9.71;75.80
79494;SHT31;68951;53.130;18.104;2024-02-23T01:44:15;9.71;75.78
79494;SHT31;68951;53.130;18.104;2024-02-23T01:46:43;9.70;75.80
79494;SHT31;68951;53.130;18.104;2024-02-23T01:49:10;9.67;75.81
79494;SHT31;68951;53.130;18.104;2024-02-23T01:51:37;9.67;75.88
79494;SHT31;68951;53.130;18.104;2024-02-23T01:54:05;9.66;75.90
79494;SHT31;68951;53.130;18.104;2024-02-23T01:56:32;9.65;75.99
79494;SHT31;68951;53.130;18.104;2024-02-23T01:59:02;9.64;76.08
79494;SHT31;68951;53.130;18.104;2024-02-23T02:01:30;9.61;76.16
79494;SHT31;68951;53.130;18.104;2024-02-23T02:03:58;9.59;76.23
79494;SHT31;68951;53.130;18.104;2024-02-23T02:06:25;9.59;76.33
79494;SHT31;68951;53.130;18.104;2024-02-23T02:08:52;9.58;76.40
79494;SHT31;68951;53.130;18.104;2024-02-23T02:11:20;9.59;76.45
79494;SHT31;68951;53.130;18.104;2024-02-23T02:13:47;9.60;76.50
79494;SHT31;68951;53.130;18.104;2024-02-23T02:16:14;9.59;76.50
79494;SHT31;68951;53.130;18.104;2024-02-23T02:18:40;9.58;76.53
79494;SHT31;68951;53.130;18.104;2024-02-23T02:21:07;9.60;76.60
79494;SHT31;68951;53.130;18.104;2024-02-23T02:23:34;9.62;76.60
79494;SHT31;68951;53.130;18.104;2024-02-23T02:26:03;9.64;76.66
79494;SHT31;68951;53.130;18.104;2024-02-23T02:28:30;9.66;76.70
79494;SHT31;68951;53.130;18.104;2024-02-23T02:30:57;9.68;76.71
79494;SHT31;68951;53.130;18.104;2024-02-23T02:33:24;9.68;76.80
79494;SHT31;68951;53.130;18.104;2024-02-23T02:35:51;9.65;76.85
79494;SHT31;68951;53.130;18.104;2024-02-23T02:38:18;9.63;76.96
79494;SHT31;68951;53.130;18.104;2024-02-23T02:40:44;9.64;77.04
79494;SHT31;68951;53.130;18.104;2024-02-23T02:43:11;9.64;77.12
79494;SHT31;68951;53.130;18.104;2024-02-23T02:45:38;9.64;77.22
79494;SHT31;68951;53.130;18.104;2024-02-23T02:48:05;9.66;77.28
79494;SHT31;68951;53.130;18.104;2024-02-23T02:50:32;9.68;77.37
79494;SHT31;68951;53.130;18.104;2024-02-23T02:52:59;9.69;77.41
79494;SHT31;68951;53.130;18.104;2024-02-23T02:55:26;9.70;77.47
79494;SHT31;68951;53.130;18.104;2024-02-23T02:57:52;9.70;77.50
79494;SHT31;68951;53.130;18.104;2024-02-23T03:00:19;9.70;77.58
79494;SHT31;68951;53.130;18.104;2024-02-23T03:02:46;9.70;77.61
79494;SHT31;68951;53.130;18.104;2024-02-23T03:05:13;9.70;77.70
79494;SHT31;68951;53.130;18.104;2024-02-23T03:07:40;9.70;77.76
79494;SHT31;68951;53.130;18.104;2024-02-23T03:10:07;9.70;77.85
79494;SHT31;68951;53.130;18.104;2024-02-23T03:12:33;9.70;77.90
79494;SHT31;68951;53.130;18.104;2024-02-23T03:15:00;9.73;77.99
79494;SHT31;68951;53.130;18.104;2024-02-23T03:17:29;9.75;78.01
79494;SHT31;68951;53.130;18.104;2024-02-23T03:19:56;9.77;78.10
79494;SHT31;68951;53.130;18.104;2024-02-23T03:22:24;9.80;78.13
79494;SHT31;68951;53.130;18.104;2024-02-23T03:24:50;9.83;78.20
79494;SHT31;68951;53.130;18.104;2024-02-23T03:27:17;9.86;78.24
79494;SHT31;68951;53.130;18.104;2024-02-23T03:29:44;9.89;78.28
79494;SHT31;68951;53.130;18.104;2024-02-23T03:32:11;9.89;78.30
79494;SHT31;68951;53.130;18.104;2024-02-23T03:34:38;9.91;78.36
79494;SHT31;68951;53.130;18.104;2024-02-23T03:37:05;9.93;78.40
79494;SHT31;68951;53.130;18.104;2024-02-23T03:39:31;9.95;78.40
79494;SHT31;68951;53.130;18.104;2024-02-23T03:41:59;9.96;78.43
79494;SHT31;68951;53.130;18.104;2024-02-23T03:44:25;9.98;78.50
79494;SHT31;68951;53.130;18.104;2024-02-23T03:46:52;10.01;78.50
79494;SHT31;68951;53.130;18.104;2024-02-23T03:49:19;10.01;78.50
79494;SHT31;68951;53.130;18.104;2024-02-23T03:51:46;10.03;78.50
79494;SHT31;68951;53.130;18.104;2024-02-23T03:54:14;10.05;78.54
79494;SHT31;68951;53.130;18.104;2024-02-23T03:56:41;10.06;78.58
79494;SHT31;68951;53.130;18.104;2024-02-23T03:59:08;10.07;78.59
79494;SHT31;68951;53.130;18.104;2024-02-23T04:01:39;10.09;78.60
79494;SHT31;68951;53.130;18.104;2024-02-23T04:04:05;10.12;78.59
79494;SHT31;68951;53.130;18.104;2024-02-23T04:06:33;10.12;78.60
79494;SHT31;68951;53.130;18.104;2024-02-23T04:09:00;10.12;78.60
79494;SHT31;68951;53.130;18.104;2024-02-23T04:11:27;10.12;78.60
79494;SHT31;68951;53.130;18.104;2024-02-23T04:13:54;10.11;78.64
79494;SHT31;68951;53.130;18.104;2024-02-23T04:16:24;10.12;78.66
79494;SHT31;68951;53.130;18.104;2024-02-23T04:18:52;10.11;78.70
79494;SHT31;68951;53.130;18.104;2024-02-23T04:21:20;10.12;78.73
79494;SHT31;68951;53.130;18.104;2024-02-23T04:23:47;10.14;78.77
79494;SHT31;68951;53.130;18.104;2024-02-23T04:26:14;10.15;78.78
79494;SHT31;68951;53.130;18.104;2024-02-23T04:28:41;10.18;78.80
79494;SHT31;68951;53.130;18.104;2024-02-23T04:31:08;10.19;78.80
79494;SHT31;68951;53.130;18.104;2024-02-23T04:33:36;10.21;78.80
79494;SHT31;68951;53.130;18.104;2024-02-23T04:36:04;10.24;78.80
79494;SHT31;68951;53.130;18.104;2024-02-23T04:38:33;10.25;78.80
79494;SHT31;68951;53.130;18.104;2024-02-23T04:41:03;10.27;78.80
79494;SHT31;68951;53.130;18.104;2024-02-23T04:43:31;10.31;78.80
79494;SHT31;68951;53.130;18.104;2024-02-23T04:45:58;10.33;78.80
79494;SHT31;68951;53.130;18.104;2024-02-23T04:48:25;10.35;78.80
79494;SHT31;68951;53.130;18.104;2024-02-23T04:50:52;10.38;78.79
79494;SHT31;68951;53.130;18.104;2024-02-23T04:53:18;10.41;78.75
79494;SHT31;68951;53.130;18.104;2024-02-23T04:55:45;10.42;78.71
79494;SHT31;68951;53.130;18.104;2024-02-23T04:58:12;10.45;78.70
79494;SHT31;68951;53.130;18.104;2024-02-23T05:00:39;10.47;78.70
79494;SHT31;68951;53.130;18.104;2024-02-23T05:03:06;10.49;78.66
79494;SHT31;68951;53.130;18.104;2024-02-23T05:05:35;10.53;78.60
79494;SHT31;68951;53.130;18.104;2024-02-23T05:08:02;10.57;78.60
79494;SHT31;68951;53.130;18.104;2024-02-23T05:10:29;10.60;78.51
79494;SHT31;68951;53.130;18.104;2024-02-23T05:12:56;10.66;78.47
79494;SHT31;68951;53.130;18.104;2024-02-23T05:15:23;10.70;78.40
79494;SHT31;68951;53.130;18.104;2024-02-23T05:17:50;10.74;78.33
79494;SHT31;68951;53.130;18.104;2024-02-23T05:20:16;10.79;78.25
79494;SHT31;68951;53.130;18.104;2024-02-23T05:22:43;10.83;78.17
79494;SHT31;68951;53.130;18.104;2024-02-23T05:25:10;10.88;78.05
79494;SHT31;68951;53.130;18.104;2024-02-23T05:27:37;10.91;77.94
79494;SHT31;68951;53.130;18.104;2024-02-23T05:30:04;10.96;77.82
79494;SHT31;68951;53.130;18.104;2024-02-23T05:32:32;10.98;77.69
79494;SHT31;68951;53.130;18.104;2024-02-23T05:34:59;11.02;77.60
79494;SHT31;68951;53.130;18.104;2024-02-23T05:37:26;11.05;77.48
79494;SHT31;68951;53.130;18.104;2024-02-23T05:39:53;11.09;77.35
79494;SHT31;68951;53.130;18.104;2024-02-23T05:42:20;11.11;77.24
79494;SHT31;68951;53.130;18.104;2024-02-23T05:44:47;11.14;77.15
79494;SHT31;68951;53.130;18.104;2024-02-23T05:47:15;11.15;77.04
79494;SHT31;68951;53.130;18.104;2024-02-23T05:49:41;11.16;76.93
79494;SHT31;68951;53.130;18.104;2024-02-23T05:52:08;11.17;76.88
79494;SHT31;68951;53.130;18.104;2024-02-23T05:54:35;11.17;76.79
79494;SHT31;68951;53.130;18.104;2024-02-23T05:57:02;11.19;76.71
79494;SHT31;68951;53.130;18.104;2024-02-23T05:59:29;11.21;76.69
79494;SHT31;68951;53.130;18.104;2024-02-23T06:01:56;11.22;76.58
79494;SHT31;68951;53.130;18.104;2024-02-23T06:04:23;11.21;76.50
79494;SHT31;68951;53.130;18.104;2024-02-23T06:06:50;11.23;76.41
79494;SHT31;68951;53.130;18.104;2024-02-23T06:09:17;11.24;76.33
79494;SHT31;68951;53.130;18.104;2024-02-23T06:11:45;11.24;76.24
79494;SHT31;68951;53.130;18.104;2024-02-23T06:14:13;11.25;76.18
79494;SHT31;68951;53.130;18.104;2024-02-23T06:16:40;11.26;76.11
79494;SHT31;68951;53.130;18.104;2024-02-23T06:19:07;11.26;76.06
79494;SHT31;68951;53.130;18.104;2024-02-23T06:21:34;11.27;76.00
79494;SHT31;68951;53.130;18.104;2024-02-23T06:24:01;11.26;75.93
79494;SHT31;68951;53.130;18.104;2024-02-23T06:26:28;11.27;75.86
79494;SHT31;68951;53.130;18.104;2024-02-23T06:28:55;11.27;75.80
79494;SHT31;68951;53.130;18.104;2024-02-23T06:31:22;11.29;75.80
79494;SHT31;68951;53.130;18.104;2024-02-23T06:33:49;11.28;75.72
79494;SHT31;68951;53.130;18.104;2024-02-23T06:36:17;11.29;75.69
79494;SHT31;68951;53.130;18.104;2024-02-23T06:38:44;11.29;75.61
79494;SHT31;68951;53.130;18.104;2024-02-23T06:41:11;11.30;75.54
79494;SHT31;68951;53.130;18.104;2024-02-23T06:43:38;11.32;75.44
79494;SHT31;68951;53.130;18.104;2024-02-23T06:46:08;11.33;75.37
79494;SHT31;68951;53.130;18.104;2024-02-23T06:48:36;11.34;75.29
79494;SHT31;68951;53.130;18.104;2024-02-23T06:51:04;11.34;75.20
79494;SHT31;68951;53.130;18.104;2024-02-23T06:53:35;11.35;75.10
79494;SHT31;68951;53.130;18.104;2024-02-23T06:56:02;11.34;75.05
79494;SHT31;68951;53.130;18.104;2024-02-23T06:58:29;11.33;74.87
79494;SHT31;68951;53.130;18.104;2024-02-23T07:00:56;11.35;74.44
79494;SHT31;68951;53.130;18.104;2024-02-23T07:03:23;11.38;74.01
79494;SHT31;68951;53.130;18.104;2024-02-23T07:05:51;11.42;73.58
79494;SHT31;68951;53.130;18.104;2024-02-23T07:08:18;11.45;73.09
79494;SHT31;68951;53.130;18.104;2024-02-23T07:10:44;11.48;72.79
79494;SHT31;68951;53.130;18.104;2024-02-23T07:13:11;11.49;72.57
79494;SHT31;68951;53.130;18.104;2024-02-23T07:15:38;11.50;72.39
79494;SHT31;68951;53.130;18.104;2024-02-23T07:18:05;11.50;72.11
79494;SHT31;68951;53.130;18.104;2024-02-23T07:20:35;11.52;71.39
79494;SHT31;68951;53.130;18.104;2024-02-23T07:23:03;11.56;70.66
79494;SHT31;68951;53.130;18.104;2024-02-23T07:25:31;11.55;69.79
79494;SHT31;68951;53.130;18.104;2024-02-23T07:27:57;11.57;68.75
79494;SHT31;68951;53.130;18.104;2024-02-23T07:30:24;11.56;67.90
79494;SHT31;68951;53.130;18.104;2024-02-23T07:32:51;11.55;67.14
79494;SHT31;68951;53.130;18.104;2024-02-23T07:35:18;11.56;66.57
79494;SHT31;68951;53.130;18.104;2024-02-23T07:37:45;11.55;66.12
79494;SHT31;68951;53.130;18.104;2024-02-23T07:40:12;11.54;65.39
79494;SHT31;68951;53.130;18.104;2024-02-23T07:42:39;11.51;64.63
79494;SHT31;68951;53.130;18.104;2024-02-23T07:45:06;11.50;64.06
79494;SHT31;68951;53.130;18.104;2024-02-23T07:47:35;11.48;63.52
79494;SHT31;68951;53.130;18.104;2024-02-23T07:50:02;11.47;63.09
79494;SHT31;68951;53.130;18.104;2024-02-23T07:52:29;11.45;62.66
79494;SHT31;68951;53.130;18.104;2024-02-23T07:54:56;11.45;62.02
79494;SHT31;68951;53.130;18.104;2024-02-23T07:57:23;11.43;61.40
79494;SHT31;68951;53.130;18.104;2024-02-23T07:59:50;11.42;60.92
79494;SHT31;68951;53.130;18.104;2024-02-23T08:02:16;11.40;60.63
79494;SHT31;68951;53.130;18.104;2024-02-23T08:04:43;11.42;60.55
79494;SHT31;68951;53.130;18.104;2024-02-23T08:07:10;11.41;60.38
79494;SHT31;68951;53.130;18.104;2024-02-23T08:09:37;11.39;60.06
79494;SHT31;68951;53.130;18.104;2024-02-23T08:12:04;11.40;59.93
79494;SHT31;68951;53.130;18.104;2024-02-23T08:14:32;11.39;59.77
79494;SHT31;68951;53.130;18.104;2024-02-23T08:16:59;11.37;59.57
79494;SHT31;68951;53.130;18.104;2024-02-23T08:19:26;11.36;59.44
79494;SHT31;68951;53.130;18.104;2024-02-23T08:21:53;11.35;59.24
79494;SHT31;68951;53.130;18.104;2024-02-23T08:24:20;11.33;59.09
79494;SHT31;68951;53.130;18.104;2024-02-23T08:26:46;11.32;58.83
79494;SHT31;68951;53.130;18.104;2024-02-23T08:29:14;11.32;58.74
79494;SHT31;68951;53.130;18.104;2024-02-23T08:31:41;11.33;58.58
79494;SHT31;68951;53.130;18.104;2024-02-23T08:34:08;11.33;58.48
79494;SHT31;68951;53.130;18.104;2024-02-23T08:36:35;11.37;58.55
79494;SHT31;68951;53.130;18.104;2024-02-23T08:39:02;11.36;58.40
79494;SHT31;68951;53.130;18.104;2024-02-23T08:41:29;11.37;58.41
79494;SHT31;68951;53.130;18.104;2024-02-23T08:43:56;11.36;58.43
79494;SHT31;68951;53.130;18.104;2024-02-23T08:46:23;11.40;58.61
79494;SHT31;68951;53.130;18.104;2024-02-23T08:48:50;11.40;58.59
79494;SHT31;68951;53.130;18.104;2024-02-23T08:51:17;11.38;58.53
79494;SHT31;68951;53.130;18.104;2024-02-23T08:53:43;11.38;58.54
79494;SHT31;68951;53.130;18.104;2024-02-23T08:56:13;11.40;58.44
79494;SHT31;68951;53.130;18.104;2024-02-23T08:58:42;11.42;58.39
79494;SHT31;68951;53.130;18.104;2024-02-23T09:01:09;11.47;58.31
79494;SHT31;68951;53.130;18.104;2024-02-23T09:03:36;11.52;58.30
79494;SHT31;68951;53.130;18.104;2024-02-23T09:06:03;11.59;58.39
79494;SHT31;68951;53.130;18.104;2024-02-23T09:08:30;11.64;58.30
79494;SHT31;68951;53.130;18.104;2024-02-23T09:10:57;11.67;58.20
79494;SHT31;68951;53.130;18.104;2024-02-23T09:13:24;11.74;58.19
79494;SHT31;68951;53.130;18.104;2024-02-23T09:15:52;11.82;58.20
79494;SHT31;68951;53.130;18.104;2024-02-23T09:18:19;11.91;58.15
79494;SHT31;68951;53.130;18.104;2024-02-23T09:20:46;11.98;58.10
79494;SHT31;68951;53.130;18.104;2024-02-23T09:23:13;12.02;57.94
79494;SHT31;68951;53.130;18.104;2024-02-23T09:25:40;12.06;57.80
79494;SHT31;68951;53.130;18.104;2024-02-23T09:28:08;12.09;57.70
79494;SHT31;68951;53.130;18.104;2024-02-23T09:30:37;12.13;57.65
79494;SHT31;68951;53.130;18.104;2024-02-23T09:33:04;12.13;57.51
79494;SHT31;68951;53.130;18.104;2024-02-23T09:35:31;12.12;57.44
79494;SHT31;68951;53.130;18.104;2024-02-23T09:37:58;12.12;57.37
79494;SHT31;68951;53.130;18.104;2024-02-23T09:40:25;12.11;57.30
79494;SHT31;68951;53.130;18.104;2024-02-23T09:42:56;12.13;57.31
79494;SHT31;68951;53.130;18.104;2024-02-23T09:45:25;12.15;57.29
79494;SHT31;68951;53.130;18.104;2024-02-23T09:47:53;12.16;57.22
79494;SHT31;68951;53.130;18.104;2024-02-23T09:50:23;12.13;57.05
79494;SHT31;68951;53.130;18.104;2024-02-23T09:52:50;12.14;56.94
79494;SHT31;68951;53.130;18.104;2024-02-23T09:55:18;12.12;56.88
79494;SHT31;68951;53.130;18.104;2024-02-23T09:57:47;12.10;56.79
79494;SHT31;68951;53.130;18.104;2024-02-23T10:00:16;12.08;56.77
79494;SHT31;68951;53.130;18.104;2024-02-23T10:02:44;12.03;56.67
79494;SHT31;68951;53.130;18.104;2024-02-23T10:05:11;12.02;56.59
79494;SHT31;68951;53.130;18.104;2024-02-23T10:07:40;12.01;56.55
79494;SHT31;68951;53.130;18.104;2024-02-23T10:10:08;12.02;56.48
79494;SHT31;68951;53.130;18.104;2024-02-23T10:12:37;12.10;56.40
79494;SHT31;68951;53.130;18.104;2024-02-23T10:15:04;12.14;56.08
79494;SHT31;68951;53.130;18.104;2024-02-23T10:17:31;12.21;55.94
79494;SHT31;68951;53.130;18.104;2024-02-23T10:19:59;12.26;55.62
79494;SHT31;68951;53.130;18.104;2024-02-23T10:22:26;12.24;55.15
79494;SHT31;68951;53.130;18.104;2024-02-23T10:24:54;12.24;54.68
79494;SHT31;68951;53.130;18.104;2024-02-23T10:27:21;12.29;54.56
79494;SHT31;68951;53.130;18.104;2024-02-23T10:29:49;12.29;54.31
79494;SHT31;68951;53.130;18.104;2024-02-23T10:32:17;12.30;54.14
79494;SHT31;68951;53.130;18.104;2024-02-23T10:34:48;12.28;53.83
79494;SHT31;68951;53.130;18.104;2024-02-23T10:37:18;12.31;53.68
79494;SHT31;68951;53.130;18.104;2024-02-23T10:39:45;12.24;53.41
79494;SHT31;68951;53.130;18.104;2024-02-23T10:42:12;12.19;53.30
79494;SHT31;68951;53.130;18.104;2024-02-23T10:44:40;12.21;53.35
79494;SHT31;68951;53.130;18.104;2024-02-23T10:47:07;12.24;53.29
79494;SHT31;68951;53.130;18.104;2024-02-23T10:49:35;12.22;53.05
79494;SHT31;68951;53.130;18.104;2024-02-23T10:52:04;12.27;52.92
79494;SHT31;68951;53.130;18.104;2024-02-23T10:54:32;12.38;52.65
79494;SHT31;68951;53.130;18.104;2024-02-23T10:57:00;12.50;52.38
79494;SHT31;68951;53.130;18.104;2024-02-23T10:59:28;12.66;52.31
79494;SHT31;68951;53.130;18.104;2024-02-23T11:01:55;12.77;52.04
79494;SHT31;68951;53.130;18.104;2024-02-23T11:04:26;12.69;51.37
79494;SHT31;68951;53.130;18.104;2024-02-23T11:06:54;12.62;50.95
79494;SHT31;68951;53.130;18.104;2024-02-23T11:09:31;12.69;50.80
79494;SHT31;68951;53.130;18.104;2024-02-23T11:11:58;12.79;50.65
79494;SHT31;68951;53.130;18.104;2024-02-23T11:17:01;13.03;50.62
79494;SHT31;68951;53.130;18.104;2024-02-23T11:19:32;13.07;50.55
79494;SHT31;68951;53.130;18.104;2024-02-23T11:22:03;13.13;50.49
79494;SHT31;68951;53.130;18.104;2024-02-23T11:24:31;13.16;50.35
79494;SHT31;68951;53.130;18.104;2024-02-23T11:26:59;13.23;50.26
79494;SHT31;68951;53.130;18.104;2024-02-23T11:29:34;13.35;50.11
79494;SHT31;68951;53.130;18.104;2024-02-23T11:32:03;13.59;50.10
79494;SHT31;68951;53.130;18.104;2024-02-23T11:34:30;13.89;49.83
79494;SHT31;68951;53.130;18.104;2024-02-23T11:36:57;14.28;49.59
79494;SHT31;68951;53.130;18.104;2024-02-23T11:39:26;14.85;49.33
79494;SHT31;68951;53.130;18.104;2024-02-23T11:41:53;15.36;48.74
79494;SHT31;68951;53.130;18.104;2024-02-23T11:44:20;15.97;48.20
79494;SHT31;68951;53.130;18.104;2024-02-23T11:46:47;16.54;47.79
79494;SHT31;68951;53.130;18.104;2024-02-23T11:49:14;16.93;47.03
79494;SHT31;68951;53.130;18.104;2024-02-23T11:51:42;16.56;46.20
79494;SHT31;68951;53.130;18.104;2024-02-23T11:54:10;15.94;45.51
79494;SHT31;68951;53.130;18.104;2024-02-23T11:56:39;15.32;45.27
79494;SHT31;68951;53.130;18.104;2024-02-23T11:59:07;14.81;45.25
79494;SHT31;68951;53.130;18.104;2024-02-23T12:01:35;14.56;45.35
79494;SHT31;68951;53.130;18.104;2024-02-23T12:04:02;14.61;45.57
79494;SHT31;68951;53.130;18.104;2024-02-23T12:06:29;14.98;45.70
79494;SHT31;68951;53.130;18.104;2024-02-23T12:08:58;15.39;45.50
79494;SHT31;68951;53.130;18.104;2024-02-23T12:11:27;15.46;45.44
79494;SHT31;68951;53.130;18.104;2024-02-23T12:13:55;15.50;45.49
79494;SHT31;68951;53.130;18.104;2024-02-23T12:16:21;15.42;45.42
79494;SHT31;68951;53.130;18.104;2024-02-23T12:18:55;15.36;45.27
79494;SHT31;68951;53.130;18.104;2024-02-23T12:21:23;15.72;45.18
79494;SHT31;68951;53.130;18.104;2024-02-23T12:23:51;15.89;45.11
79494;SHT31;68951;53.130;18.104;2024-02-23T12:26:19;15.65;45.10
79494;SHT31;68951;53.130;18.104;2024-02-23T12:28:46;15.83;45.30
79494;SHT31;68951;53.130;18.104;2024-02-23T12:31:13;16.09;45.12
79494;SHT31;68951;53.130;18.104;2024-02-23T12:33:40;16.65;44.99
79494;SHT31;68951;53.130;18.104;2024-02-23T12:36:08;17.29;44.86
79494;SHT31;68951;53.130;18.104;2024-02-23T12:38:36;17.25;44.30
79494;SHT31;68951;53.130;18.104;2024-02-23T12:41:03;16.74;44.02
79494;SHT31;68951;53.130;18.104;2024-02-23T12:43:31;17.00;43.98
79494;SHT31;68951;53.130;18.104;2024-02-23T12:45:58;17.15;43.86
79494;SHT31;68951;53.130;18.104;2024-02-23T12:48:27;16.73;43.81
79494;SHT31;68951;53.130;18.104;2024-02-23T12:50:54;16.05;43.76
79494;SHT31;68951;53.130;18.104;2024-02-23T12:56:08;14.88;44.28
79494;SHT31;68951;53.130;18.104;2024-02-23T12:58:43;14.47;44.64
79494;SHT31;68951;53.130;18.104;2024-02-23T13:01:11;14.10;44.99
79494;SHT31;68951;53.130;18.104;2024-02-23T13:03:38;13.67;45.25
79494;SHT31;68951;53.130;18.104;2024-02-23T13:06:09;13.31;45.49
79494;SHT31;68951;53.130;18.104;2024-02-23T13:08:35;13.03;45.60
79494;SHT31;68951;53.130;18.104;2024-02-23T13:11:02;12.82;45.68
79494;SHT31;68951;53.130;18.104;2024-02-23T13:13:29;12.63;45.77
79494;SHT31;68951;53.130;18.104;2024-02-23T13:15:58;12.46;46.05
79494;SHT31;68951;53.130;18.104;2024-02-23T13:18:25;12.36;46.41
79494;SHT31;68951;53.130;18.104;2024-02-23T13:20:52;12.22;46.65
79494;SHT31;68951;53.130;18.104;2024-02-23T13:23:18;12.11;46.89
79494;SHT31;68951;53.130;18.104;2024-02-23T13:25:45;12.01;47.00
79494;SHT31;68951;53.130;18.104;2024-02-23T13:28:12;11.89;46.99
79494;SHT31;68951;53.130;18.104;2024-02-23T13:30:39;11.80;47.06
79494;SHT31;68951;53.130;18.104;2024-02-23T13:33:08;11.73;47.12
79494;SHT31;68951;53.130;18.104;2024-02-23T13:35:37;11.62;47.14
79494;SHT31;68951;53.130;18.104;2024-02-23T13:38:05;11.52;47.20
79494;SHT31;68951;53.130;18.104;2024-02-23T13:40:33;11.43;47.29
79494;SHT31;68951;53.130;18.104;2024-02-23T13:43:00;11.37;47.43
79494;SHT31;68951;53.130;18.104;2024-02-23T13:45:26;11.33;47.61
79494;SHT31;68951;53.130;18.104;2024-02-23T13:47:57;11.33;47.78
79494;SHT31;68951;53.130;18.104;2024-02-23T13:50:29;11.33;48.04
79494;SHT31;68951;53.130;18.104;2024-02-23T13:52:56;11.30;48.22
79494;SHT31;68951;53.130;18.104;2024-02-23T13:55:23;11.27;48.45
79494;SHT31;68951;53.130;18.104;2024-02-23T13:57:50;11.26;48.63
79494;SHT31;68951;53.130;18.104;2024-02-23T14:00:17;11.25;48.81
79494;SHT31;68951;53.130;18.104;2024-02-23T14:02:45;11.27;49.02
79494;SHT31;68951;53.130;18.104;2024-02-23T14:05:13;11.35;49.21
79494;SHT31;68951;53.130;18.104;2024-02-23T14:07:41;11.45;49.34
79494;SHT31;68951;53.130;18.104;2024-02-23T14:10:08;11.54;49.39
79494;SHT31;68951;53.130;18.104;2024-02-23T14:12:36;11.61;49.38
79494;SHT31;68951;53.130;18.104;2024-02-23T14:15:03;11.69;49.33
79494;SHT31;68951;53.130;18.104;2024-02-23T14:17:31;11.76;49.30
79494;SHT31;68951;53.130;18.104;2024-02-23T14:19:58;11.79;49.30
79494;SHT31;68951;53.130;18.104;2024-02-23T14:22:25;11.81;49.31
79494;SHT31;68951;53.130;18.104;2024-02-23T14:24:54;11.83;49.37
79494;SHT31;68951;53.130;18.104;2024-02-23T14:27:21;11.84;49.40
79494;SHT31;68951;53.130;18.104;2024-02-23T14:29:48;11.82;49.38
79494;SHT31;68951;53.130;18.104;2024-02-23T14:32:16;11.80;49.36
79494;SHT31;68951;53.130;18.104;2024-02-23T14:34:44;11.77;49.40
79494;SHT31;68951;53.130;18.104;2024-02-23T14:37:12;11.79;49.44
79494;SHT31;68951;53.130;18.104;2024-02-23T14:39:40;11.86;49.52
79494;SHT31;68951;53.130;18.104;2024-02-23T14:42:06;11.86;49.50
79494;SHT31;68951;53.130;18.104;2024-02-23T14:44:36;11.85;49.59
79494;SHT31;68951;53.130;18.104;2024-02-23T14:47:03;11.87;49.63
79494;SHT31;68951;53.130;18.104;2024-02-23T14:49:31;11.95;49.72
79494;SHT31;68951;53.130;18.104;2024-02-23T14:51:59;11.96;49.80
79494;SHT31;68951;53.130;18.104;2024-02-23T14:54:26;11.91;49.71
79494;SHT31;68951;53.130;18.104;2024-02-23T14:56:52;11.83;49.73
79494;SHT31;68951;53.130;18.104;2024-02-23T14:59:19;11.81;49.80
79494;SHT31;68951;53.130;18.104;2024-02-23T15:01:46;11.79;49.80
79494;SHT31;68951;53.130;18.104;2024-02-23T15:04:13;11.76;49.82
79494;SHT31;68951;53.130;18.104;2024-02-23T15:06:40;11.75;49.86
79494;SHT31;68951;53.130;18.104;2024-02-23T15:09:07;11.72;49.92
79494;SHT31;68951;53.130;18.104;2024-02-23T15:11:34;11.72;49.95
79494;SHT31;68951;53.130;18.104;2024-02-23T15:14:01;11.68;50.00
79494;SHT31;68951;53.130;18.104;2024-02-23T15:16:28;11.60;50.05
79494;SHT31;68951;53.130;18.104;2024-02-23T15:18:57;11.55;50.12
79494;SHT31;68951;53.130;18.104;2024-02-23T15:21:24;11.53;50.29
79494;SHT31;68951;53.130;18.104;2024-02-23T15:23:51;11.50;50.40
79494;SHT31;68951;53.130;18.104;2024-02-23T15:26:18;11.48;50.49